Climatologie pour Saint-Brevin les Pins
Jour • Résumé pour mars 4, 2017 Système :  Métrique    Anglais   Mixte
« - 1 jour
+ 1 jour »
Jour Semaine Mois Année Personnalisé
  Maximum : Minimum : Moyenne :
Température sous abri : -17.8 °C -14.8 °C -13.1 °C
Point de rosée : -17.8 °C -15.1 °C -14.2 °C
Humidité : Humidity % 74 % 87 %
Vitesse du vent : 0 km/h 0 km/h 12.9 km/h
Rafale : 0 km/h - -
Direction :- - West
Pression : 0 hPa 33616.2 hPa -
Précipitations : 38.1 mm    
Historical Graphs
 
 
Tableau de données pour mars 4, 2017
Heure Tempé Pt rosée Pression Vent Vitesse Rafale Humidité Taux pluie (/hr) Soleil
-17.8 °C -17.8 °C 0 hPa Calm     Humidity % 0 mm SolarRadiationWatts/m^2 W/m2 Conditions
00:00 -13 °C -13.3 °C 33639.9 hPa WSW 5.1 km/h 12.9 km/h 96 % 0 mm 0 W/m2
00:05 -13.1 °C -13.4 °C 33639.9 hPa WSW 7.7 km/h 15.6 km/h 96 % 0 mm 0 W/m2
00:10 -13.1 °C -13.4 °C 33639.9 hPa SW 7.7 km/h 15.6 km/h 96 % 0 mm 0 W/m2
00:15 -13.2 °C -13.5 °C 33626.4 hPa SW 5.1 km/h 15.6 km/h 96 % 0 mm 0 W/m2
00:20 -13.2 °C -13.6 °C 33639.9 hPa WSW 5.1 km/h 18.2 km/h 95 % 0 mm 0 W/m2
00:25 -13.2 °C -13.6 °C 33639.9 hPa West 10.3 km/h 18.2 km/h 95 % 0 mm 0 W/m2
00:30 -13.2 °C -13.6 °C 33650.1 hPa West 7.7 km/h 20.8 km/h 95 % 0 mm 0 W/m2
00:35 -13.1 °C -13.5 °C 33650.1 hPa WSW 12.9 km/h 20.8 km/h 95 % 0 mm 0 W/m2
00:40 -13.1 °C -13.5 °C 33650.1 hPa SW 10.3 km/h 18.2 km/h 95 % 0 mm 0 W/m2
00:45 -13 °C -13.4 °C 33650.1 hPa WNW 7.7 km/h 18.2 km/h 95 % 0 mm 0 W/m2
00:50 -13 °C -13.4 °C 33639.9 hPa WSW 5.1 km/h 18.2 km/h 95 % 0 mm 0 W/m2
00:55 -13 °C -13.4 °C 33639.9 hPa West 12.9 km/h 20.8 km/h 95 % 0 mm 0 W/m2
01:00 -13 °C -13.4 °C 33639.9 hPa West 12.9 km/h 20.8 km/h 95 % 0 mm 0 W/m2
01:05 -12.9 °C -13.4 °C 33639.9 hPa WSW 12.9 km/h 20.8 km/h 95 % 0 mm 0 W/m2
01:10 -12.9 °C -13.3 °C 33626.4 hPa WNW 10.3 km/h 20.8 km/h 95 % 0 mm 0 W/m2
01:15 -12.9 °C -13.4 °C 33626.4 hPa West 2.6 km/h 23.3 km/h 94 % 0 mm 0 W/m2
01:20 -12.9 °C -13.4 °C 33626.4 hPa WNW 7.7 km/h 23.3 km/h 94 % 0 mm 0 W/m2
01:25 -12.9 °C -13.4 °C 33639.9 hPa West 7.7 km/h 18.2 km/h 94 % 0 mm 0 W/m2
01:30 -12.9 °C -13.4 °C 33639.9 hPa WNW 12.9 km/h 23.3 km/h 94 % 0 mm 0 W/m2
01:35 -12.9 °C -13.4 °C 33639.9 hPa WNW 5.1 km/h 23.3 km/h 94 % 0 mm 0 W/m2
01:40 -12.9 °C -13.4 °C 33650.1 hPa NW 10.3 km/h 23.3 km/h 94 % 0 mm 0 W/m2
01:45 -12.9 °C -13.4 °C 33650.1 hPa NW 12.9 km/h 23.3 km/h 94 % 0 mm 0 W/m2
01:50 -12.9 °C -13.4 °C 33650.1 hPa NW 15.6 km/h 23.3 km/h 94 % 0 mm 0 W/m2
01:55 -12.9 °C -13.4 °C 33650.1 hPa NW 7.7 km/h 25.9 km/h 94 % 0 mm 0 W/m2
02:00 -12.9 °C -13.6 °C 33650.1 hPa WNW 7.7 km/h 25.9 km/h 93 % 0 mm 0 W/m2
02:05 -12.9 °C -13.6 °C 33650.1 hPa NW 2.6 km/h 20.8 km/h 93 % 0 mm 0 W/m2
02:10 -13 °C -13.6 °C 33650.1 hPa NW 23.3 km/h 23.3 km/h 93 % 0 mm 0 W/m2
02:15 -13.1 °C -13.7 °C 33660.2 hPa WNW 10.3 km/h 23.3 km/h 93 % 0 mm 0 W/m2
02:20 -13.1 °C -13.7 °C 33660.2 hPa WNW 7.7 km/h 23.3 km/h 93 % 0 mm 0 W/m2
02:30 -13.2 °C -13.8 °C 33650.1 hPa NW 5.1 km/h 12.9 km/h 93 % 0 mm 0 W/m2
02:35 -13.3 °C -13.9 °C 33650.1 hPa WNW 12.9 km/h 15.6 km/h 93 % 0 mm 0 W/m2
02:40 -13.3 °C -13.9 °C 33650.1 hPa WNW 10.3 km/h 15.6 km/h 93 % 0 mm 0 W/m2
02:45 -13.4 °C -13.9 °C 33650.1 hPa WNW 10.3 km/h 15.6 km/h 93 % 0 mm 0 W/m2
02:50 -13.4 °C -13.9 °C 33650.1 hPa Calm   12.9 km/h 93 % 0 mm 0 W/m2
02:55 -13.4 °C -14.1 °C 33639.9 hPa WNW 2.6 km/h 10.3 km/h 93 % 0 mm 0 W/m2
03:00 -13.6 °C -14.1 °C 33639.9 hPa Calm   10.3 km/h 94 % 0 mm 0 W/m2
03:05 -13.7 °C -14.3 °C 33639.9 hPa WNW 5.1 km/h 7.7 km/h 93 % 0 mm 0 W/m2
03:10 -13.8 °C -14.3 °C 33639.9 hPa WNW 2.6 km/h 10.3 km/h 94 % 0 mm 0 W/m2
03:15 -13.8 °C -14.3 °C 33639.9 hPa Calm   10.3 km/h 94 % 0 mm 0 W/m2
03:20 -13.9 °C -14.4 °C 33650.1 hPa Calm   7.7 km/h 94 % 0 mm 0 W/m2
03:25 -14 °C -14.5 °C 33650.1 hPa Calm   5.1 km/h 94 % 0 mm 0 W/m2
03:30 -14.1 °C -14.6 °C 33650.1 hPa Calm   2.6 km/h 94 % 0 mm 0 W/m2
03:35 -14.2 °C -14.6 °C 33639.9 hPa Calm   2.6 km/h 95 % 0 mm 0 W/m2
03:40 -14.3 °C -14.7 °C 33639.9 hPa Calm   5.1 km/h 95 % 0 mm 0 W/m2
03:45 -14.5 °C -14.9 °C 33626.4 hPa Calm   7.7 km/h 95 % 0 mm 0 W/m2
03:50 -14.6 °C -14.9 °C 33626.4 hPa WNW 5.1 km/h 7.7 km/h 95 % 0 mm 0 W/m2
03:55 -14.6 °C -15 °C 33626.4 hPa Calm   5.1 km/h 95 % 0 mm 0 W/m2
04:00 -14.6 °C -15.1 °C 33626.4 hPa Calm   5.1 km/h 95 % 0 mm 0 W/m2
04:05 -14.6 °C -14.9 °C 33626.4 hPa Calm     96 % 0 mm 0 W/m2
04:10 -14.6 °C -14.9 °C 33639.9 hPa Calm   5.1 km/h 96 % 0 mm 0 W/m2
04:20 -14.6 °C -14.9 °C 33626.4 hPa Calm   7.7 km/h 96 % 0 mm 0 W/m2
04:25 -14.6 °C -14.9 °C 33626.4 hPa Calm   10.3 km/h 96 % 0 mm 0 W/m2
04:30 -14.5 °C -14.7 °C 33626.4 hPa Calm   10.3 km/h 97 % 0 mm 0 W/m2
04:35 -14.3 °C -14.6 °C 33626.4 hPa Calm   10.3 km/h 97 % 0 mm 0 W/m2
04:40 -14.2 °C -14.4 °C 33616.2 hPa Calm   10.3 km/h 97 % 0 mm 0 W/m2
04:45 -14.3 °C -14.6 °C 33626.4 hPa Calm   7.7 km/h 96 % 0 mm 0 W/m2
04:50 -14.3 °C -14.7 °C 33626.4 hPa Calm   5.1 km/h 96 % 0 mm 0 W/m2
04:55 -14.3 °C -14.5 °C 33626.4 hPa WSW 2.6 km/h 5.1 km/h 97 % 0 mm 0 W/m2
05:00 -14.3 °C -14.5 °C 33626.4 hPa WSW 5.1 km/h 5.1 km/h 97 % 0 mm 0 W/m2
05:05 -14.3 °C -14.6 °C 33626.4 hPa Calm   7.7 km/h 97 % 0 mm 0 W/m2
05:10 -14.3 °C -14.6 °C 33626.4 hPa Calm   7.7 km/h 97 % 0 mm 0 W/m2
05:15 -14.3 °C -14.6 °C 33639.9 hPa Calm   2.6 km/h 97 % 0 mm 0 W/m2
05:20 -14.4 °C -14.6 °C 33639.9 hPa WSW 5.1 km/h 7.7 km/h 97 % 0 mm 0 W/m2
05:25 -14.3 °C -14.6 °C 33626.4 hPa WSW 2.6 km/h 7.7 km/h 97 % 0 mm 0 W/m2
05:30 -14.3 °C -14.5 °C 33626.4 hPa WSW 2.6 km/h 10.3 km/h 97 % 0 mm 0 W/m2
05:35 -14.1 °C -14.4 °C 33626.4 hPa Calm   18.2 km/h 97 % 0 mm 0 W/m2
05:40 -13.9 °C -14.1 °C 33626.4 hPa West 10.3 km/h 20.8 km/h 98 % 0 mm 0 W/m2
05:45 -13.7 °C -13.9 °C 33626.4 hPa WNW 10.3 km/h 46.7 km/h 98 % 0 mm 0 W/m2
05:50 -13.8 °C -14.1 °C 33639.9 hPa WNW 15.6 km/h 51.8 km/h 97 % 0 mm 0 W/m2
05:55 -13.9 °C -14.2 °C 33639.9 hPa West 23.3 km/h 51.8 km/h 97 % 0 mm 0 W/m2
06:00 -14 °C -14.2 °C 33639.9 hPa WNW 28.5 km/h 62.1 km/h 97 % 7.62 mm 0 W/m2
06:05 -14.1 °C -14.3 °C 33650.1 hPa WNW 12.9 km/h 62.1 km/h 97 % 12.7 mm 0 W/m2
06:10 -14.1 °C -14.3 °C 33650.1 hPa WSW 12.9 km/h 54.4 km/h 97 % 12.7 mm 0 W/m2
06:15 -14.1 °C -14.4 °C 33650.1 hPa WNW 15.6 km/h 36.2 km/h 97 % 25.4 mm 0 W/m2
06:20 -14.1 °C -14.4 °C 33650.1 hPa West 5.1 km/h 25.9 km/h 97 % 25.4 mm 0 W/m2
06:25 -14.1 °C -14.4 °C 33650.1 hPa WNW 7.7 km/h 25.9 km/h 97 % 33.02 mm 0 W/m2
06:30 -14.1 °C -14.4 °C 33660.2 hPa WNW 20.8 km/h 28.5 km/h 97 % 33.02 mm 0 W/m2
06:35 -14.2 °C -14.4 °C 33660.2 hPa West 10.3 km/h 28.5 km/h 97 % 33.02 mm 0 W/m2
06:40 -14.2 °C -14.4 °C 33660.2 hPa WNW 10.3 km/h 28.5 km/h 97 % 33.02 mm 0 W/m2
06:45 -14.2 °C -14.4 °C 33660.2 hPa NW 10.3 km/h 28.5 km/h 97 % 33.02 mm 0 W/m2
06:50 -14.2 °C -14.4 °C 33660.2 hPa West 15.6 km/h 23.3 km/h 97 % 33.02 mm 0 W/m2
06:55 -14.2 °C -14.4 °C 33660.2 hPa WNW 2.6 km/h 20.8 km/h 97 % 33.02 mm 0 W/m2
07:00 -14.2 °C -14.4 °C 33660.2 hPa NW 15.6 km/h 23.3 km/h 97 % 25.4 mm 0 W/m2
07:05 -14.2 °C -14.5 °C 33660.2 hPa WNW 15.6 km/h 23.3 km/h 97 % 20.32 mm 0 W/m2
07:10 -14.3 °C -14.5 °C 33650.1 hPa NW 2.6 km/h 23.3 km/h 97 % 12.7 mm 0 W/m2
07:15 -14.3 °C -14.6 °C 33650.1 hPa WNW 5.1 km/h 20.8 km/h 96 % 12.7 mm 0 W/m2
07:20 -14.3 °C -14.6 °C 33650.1 hPa NW 2.6 km/h 23.3 km/h 96 % 7.62 mm 0 W/m2
07:25 -14.3 °C -14.7 °C 33650.1 hPa NW 2.6 km/h 23.3 km/h 96 % 7.62 mm 0 W/m2
07:30 -14.3 °C -14.6 °C 33650.1 hPa Calm   12.9 km/h 97 % 7.62 mm 0 W/m2
07:40 -14.5 °C -14.8 °C 33639.9 hPa NW 2.6 km/h 5.1 km/h 96 % 7.62 mm 0 W/m2
07:45 -14.6 °C -14.9 °C 33639.9 hPa Calm   5.1 km/h 96 % 12.7 mm 0 W/m2
07:50 -14.6 °C -14.9 °C 33639.9 hPa NW 2.6 km/h 7.7 km/h 96 % 12.7 mm 0 W/m2
07:55 -14.6 °C -14.9 °C 33639.9 hPa Calm   7.7 km/h 96 % 12.7 mm 7 W/m2
08:00 -14.7 °C -15 °C 33639.9 hPa Calm   10.3 km/h 96 % 12.7 mm 11 W/m2
08:05 -14.8 °C -15.1 °C 33639.9 hPa WNW 2.6 km/h 10.3 km/h 96 % 12.7 mm 12 W/m2
08:10 -14.7 °C -14.9 °C 33639.9 hPa WNW 7.7 km/h 10.3 km/h 97 % 12.7 mm 14 W/m2
08:15 -14.6 °C -14.8 °C 33639.9 hPa WNW 7.7 km/h 10.3 km/h 97 % 7.62 mm 12 W/m2
08:20 -14.5 °C -14.8 °C 33639.9 hPa WNW 10.3 km/h 12.9 km/h 97 % 7.62 mm 9 W/m2
08:25 -14.4 °C -14.7 °C 33639.9 hPa WNW 20.8 km/h 38.8 km/h 97 % 7.62 mm 12 W/m2
08:30 -14.4 °C -14.6 °C 33639.9 hPa WNW 12.9 km/h 38.8 km/h 97 % 7.62 mm 14 W/m2
08:35 -14.4 °C -14.6 °C 33639.9 hPa NNW 12.9 km/h 33.6 km/h 97 % 7.62 mm 18 W/m2
08:40 -14.4 °C -14.6 °C 33639.9 hPa NW 2.6 km/h 33.6 km/h 97 % 7.62 mm 18 W/m2
08:45 -14.4 °C -14.7 °C 33639.9 hPa West 7.7 km/h 23.3 km/h 97 % 0 mm 25 W/m2
08:50 -14.4 °C -14.7 °C 33639.9 hPa WNW 5.1 km/h 23.3 km/h 97 % 0 mm 40 W/m2
08:55 -14.4 °C -14.6 °C 33639.9 hPa NNW 5.1 km/h 23.3 km/h 97 % 0 mm 40 W/m2
09:00 -14.3 °C -14.6 °C 33639.9 hPa WNW 7.7 km/h 15.6 km/h 97 % 0 mm 28 W/m2
09:10 -14.4 °C -14.7 °C 33639.9 hPa Calm   12.9 km/h 96 % 0 mm 53 W/m2
09:15 -14.3 °C -14.7 °C 33639.9 hPa Calm   7.7 km/h 96 % 0 mm 47 W/m2
09:20 -14.3 °C -14.6 °C 33639.9 hPa Calm   2.6 km/h 96 % 0 mm 37 W/m2
09:25 -14.2 °C -14.6 °C 33650.1 hPa WNW 2.6 km/h 5.1 km/h 96 % 0 mm 40 W/m2
09:35 -14 °C -14.4 °C 33650.1 hPa WSW 2.6 km/h 10.3 km/h 95 % 0 mm 40 W/m2
09:40 -13.8 °C -14.3 °C 33660.2 hPa WSW 2.6 km/h 12.9 km/h 95 % 0 mm 42 W/m2
09:45 -13.7 °C -14.2 °C 33660.2 hPa West 12.9 km/h 20.8 km/h 94 % 0 mm 44 W/m2
09:50 -13.7 °C -14.3 °C 33660.2 hPa West 7.7 km/h 20.8 km/h 93 % 0 mm 53 W/m2
09:55 -13.7 °C -14.3 °C 33660.2 hPa SW 12.9 km/h 20.8 km/h 93 % 0 mm 56 W/m2
10:00 -13.7 °C -14.2 °C 33660.2 hPa West 2.6 km/h 15.6 km/h 93 % 0 mm 47 W/m2
10:05 -13.4 °C -14.1 °C 33660.2 hPa WSW 10.3 km/h 15.6 km/h 92 % 0 mm 350 W/m2
10:10 -13.2 °C -14 °C 33660.2 hPa West 7.7 km/h 18.2 km/h 91 % 0 mm 357 W/m2
10:15 -13.1 °C -14.1 °C 33660.2 hPa West 7.7 km/h 18.2 km/h 89 % 0 mm 369 W/m2
10:20 -13 °C -14.2 °C 33660.2 hPa West 5.1 km/h 20.8 km/h 87 % 0 mm 385 W/m2
10:25 -12.9 °C -14.3 °C 33660.2 hPa WNW 10.3 km/h 25.9 km/h 85 % 0 mm 394 W/m2
10:30 -12.9 °C -14.3 °C 33660.2 hPa WSW 7.7 km/h 28.5 km/h 85 % 0 mm 410 W/m2
10:35 -12.9 °C -14.2 °C 33660.2 hPa WSW 18.2 km/h 28.5 km/h 85 % 0 mm 420 W/m2
10:40 -12.9 °C -14.3 °C 33660.2 hPa WSW 23.3 km/h 25.9 km/h 85 % 0 mm 431 W/m2
10:45 -12.9 °C -14.2 °C 33660.2 hPa WNW 7.7 km/h 28.5 km/h 85 % 0 mm 443 W/m2
10:50 -12.8 °C -14.1 °C 33660.2 hPa WSW 18.2 km/h 28.5 km/h 85 % 0 mm 459 W/m2
10:55 -12.7 °C -14.1 °C 33660.2 hPa West 7.7 km/h 31.1 km/h 84 % 0 mm 487 W/m2
11:00 -12.6 °C -14 °C 33660.2 hPa WSW 10.3 km/h 31.1 km/h 84 % 0 mm 478 W/m2
11:05 -12.6 °C -14.1 °C 33673.8 hPa WSW 7.7 km/h 28.5 km/h 83 % 0 mm 482 W/m2
11:10 -12.4 °C -13.8 °C 33673.8 hPa WSW 18.2 km/h 28.5 km/h 84 % 0 mm 487 W/m2
11:15 -12.5 °C -13.9 °C 33673.8 hPa WSW 12.9 km/h 31.1 km/h 84 % 0 mm 497 W/m2
11:20 -12.4 °C -14.1 °C 33673.8 hPa SW 5.1 km/h 31.1 km/h 82 % 0 mm 506 W/m2
11:25 -12.3 °C -14.1 °C 33683.9 hPa WSW 12.9 km/h 28.5 km/h 81 % 0 mm 515 W/m2
11:30 -12.3 °C -14.1 °C 33683.9 hPa WNW 12.9 km/h 38.8 km/h 81 % 0 mm 522 W/m2
11:35 -12.1 °C -13.8 °C 33683.9 hPa WSW 12.9 km/h 38.8 km/h 82 % 0 mm 529 W/m2
11:40 -12.1 °C -13.9 °C 33683.9 hPa West 15.6 km/h 36.2 km/h 80 % 0 mm 538 W/m2
11:45 -11.9 °C -13.7 °C 33683.9 hPa WSW 18.2 km/h 36.2 km/h 81 % 0 mm 545 W/m2
11:50 -12 °C -13.8 °C 33683.9 hPa West 7.7 km/h 36.2 km/h 80 % 0 mm 548 W/m2
11:55 -11.9 °C -13.9 °C 33683.9 hPa WSW 25.9 km/h 36.2 km/h 79 % 0 mm 555 W/m2
12:00 -12.1 °C -13.9 °C 33683.9 hPa SW 15.6 km/h 33.6 km/h 80 % 0 mm 563 W/m2
12:05 -11.9 °C -13.7 °C 33694.1 hPa WSW 7.7 km/h 33.6 km/h 81 % 0 mm 564 W/m2
12:10 -11.9 °C -13.7 °C 33694.1 hPa WNW 20.8 km/h 31.1 km/h 81 % 0 mm 571 W/m2
12:15 -11.9 °C -13.6 °C 33683.9 hPa WSW 5.1 km/h 38.8 km/h 82 % 0 mm 578 W/m2
12:20 -11.8 °C -13.6 °C 33683.9 hPa West 12.9 km/h 38.8 km/h 80 % 0 mm 619 W/m2
12:30 -11.8 °C -13.7 °C 33694.1 hPa West 10.3 km/h 33.6 km/h 79 % 0 mm 599 W/m2
12:35 -11.8 °C -13.8 °C 33694.1 hPa WNW 10.3 km/h 31.1 km/h 79 % 0 mm 615 W/m2
12:40 -11.7 °C -13.6 °C 33694.1 hPa SW 10.3 km/h 33.6 km/h 80 % 0 mm 617 W/m2
12:45 -11.7 °C -13.6 °C 33694.1 hPa WSW 23.3 km/h 33.6 km/h 80 % 0 mm 670 W/m2
12:50 -11.6 °C -13.4 °C 33694.1 hPa West 18.2 km/h 33.6 km/h 80 % 0 mm 642 W/m2
12:55 -11.6 °C -13.6 °C 33694.1 hPa WSW 33.6 km/h 38.8 km/h 79 % 0 mm 610 W/m2
13:00 -11.8 °C -13.7 °C 33694.1 hPa WSW 23.3 km/h 38.8 km/h 79 % 0 mm 608 W/m2
13:05 -11.7 °C -13.5 °C 33694.1 hPa WSW 23.3 km/h 38.8 km/h 80 % 0 mm 606 W/m2
13:10 -11.7 °C -13.6 °C 33694.1 hPa WSW 46.7 km/h 46.7 km/h 80 % 0 mm 608 W/m2
13:15 -11.5 °C -13.7 °C 33694.1 hPa West 7.7 km/h 46.7 km/h 77 % 0 mm 606 W/m2
13:20 -11.4 °C -13.6 °C 33694.1 hPa WNW 7.7 km/h 46.7 km/h 77 % 0 mm 608 W/m2
13:25 -11.4 °C -13.5 °C 33694.1 hPa SW 36.2 km/h 36.2 km/h 78 % 0 mm 608 W/m2
13:30 -11.5 °C -13.7 °C 33694.1 hPa SW 15.6 km/h 44.1 km/h 77 % 0 mm 605 W/m2
13:35 -11.5 °C -13.7 °C 33694.1 hPa WSW 23.3 km/h 46.7 km/h 77 % 0 mm 603 W/m2
13:40 -11.3 °C -13.2 °C 33694.1 hPa WSW 25.9 km/h 46.7 km/h 80 % 0 mm 603 W/m2
13:45 -11.4 °C -13.5 °C 33694.1 hPa WNW 10.3 km/h 46.7 km/h 78 % 0 mm 601 W/m2
13:50 -11.3 °C -13.4 °C 33694.1 hPa SW 10.3 km/h 46.7 km/h 78 % 0 mm 599 W/m2
13:55 -11.3 °C -13.4 °C 33694.1 hPa West 25.9 km/h 41.4 km/h 78 % 0 mm 596 W/m2
14:00 -11.4 °C -13.7 °C 33694.1 hPa WSW 25.9 km/h 41.4 km/h 76 % 0 mm 591 W/m2
14:05 -11.2 °C -13.7 °C 33694.1 hPa West 10.3 km/h 36.2 km/h 74 % 0 mm 561 W/m2
14:10 -11.4 °C -13.7 °C 33694.1 hPa West 23.3 km/h 38.8 km/h 76 % 0 mm 605 W/m2
14:15 -11.6 °C -13.7 °C 33694.1 hPa West 20.8 km/h 44.1 km/h 77 % 0 mm 585 W/m2
14:20 -11.4 °C -13.7 °C 33694.1 hPa West 20.8 km/h 46.7 km/h 76 % 0 mm 578 W/m2
14:25 -11.5 °C -13.7 °C 33694.1 hPa West 31.1 km/h 46.7 km/h 76 % 0 mm 575 W/m2
14:30 -11.7 °C -13.5 °C 33694.1 hPa West 20.8 km/h 49.2 km/h 80 % 0 mm 570 W/m2
14:40 -11.6 °C -13.2 °C 33694.1 hPa WNW 15.6 km/h 46.7 km/h 82 % 0 mm 578 W/m2
14:45 -11.6 °C -13.5 °C 33694.1 hPa WNW 18.2 km/h 49.2 km/h 79 % 0 mm 496 W/m2
14:50 -11.5 °C -13.3 °C 33707.6 hPa WNW 28.5 km/h 49.2 km/h 80 % 0 mm 132 W/m2
14:55 -11.9 °C -13.7 °C 33707.6 hPa NW 12.9 km/h 44.1 km/h 81 % 0 mm 146 W/m2
15:00 -12.2 °C -13.9 °C 33707.6 hPa West 20.8 km/h 38.8 km/h 81 % 0 mm 181 W/m2
15:05 -12.2 °C -13.7 °C 33707.6 hPa WNW 15.6 km/h 33.6 km/h 84 % 0 mm 315 W/m2
15:10 -12 °C -13.5 °C 33707.6 hPa West 23.3 km/h 41.4 km/h 83 % 0 mm 265 W/m2
15:15 -12.1 °C -13.6 °C 33707.6 hPa West 31.1 km/h 41.4 km/h 83 % 0 mm 272 W/m2
15:20 -12.2 °C -13.6 °C 33717.8 hPa West 28.5 km/h 44.1 km/h 84 % 0 mm 232 W/m2
15:25 -12.2 °C -13.4 °C 33717.8 hPa West 20.8 km/h 44.1 km/h 86 % 0 mm 155 W/m2
15:30 -12.2 °C -13.4 °C 33717.8 hPa NW 28.5 km/h 36.2 km/h 87 % 0 mm 204 W/m2
15:35 -12 °C -12.9 °C 33717.8 hPa WNW 20.8 km/h 36.2 km/h 89 % 0 mm 462 W/m2
15:40 -11.7 °C -12.9 °C 33731.3 hPa WSW 23.3 km/h 38.8 km/h 86 % 0 mm 638 W/m2
15:45 -11.5 °C -12.8 °C 33731.3 hPa NW 23.3 km/h 38.8 km/h 85 % 0 mm 255 W/m2
15:50 -11.8 °C -13.4 °C 33731.3 hPa WNW 7.7 km/h 41.4 km/h 82 % 0 mm 134 W/m2
15:55 -11.9 °C -13.5 °C 33731.3 hPa West 12.9 km/h 41.4 km/h 83 % 0 mm 70 W/m2
16:00 -12.1 °C -13.7 °C 33741.5 hPa West 20.8 km/h 54.4 km/h 83 % 0 mm 62 W/m2
16:05 -12.3 °C -13.7 °C 33741.5 hPa West 12.9 km/h 54.4 km/h 84 % 0 mm 53 W/m2
16:10 -12.4 °C -13.6 °C 33741.5 hPa West 20.8 km/h 49.2 km/h 87 % 0 mm 155 W/m2
16:15 -12.3 °C -13.4 °C 33741.5 hPa WNW 12.9 km/h 46.7 km/h 87 % 0 mm 155 W/m2
16:20 -12.2 °C -13.6 °C 33741.5 hPa WNW 31.1 km/h 46.7 km/h 85 % 0 mm 97 W/m2
16:30 -12.1 °C -13.6 °C 33741.5 hPa WNW 20.8 km/h 44.1 km/h 83 % 0 mm 413 W/m2
16:35 -11.8 °C -13.3 °C 33751.6 hPa West 28.5 km/h 44.1 km/h 83 % 0 mm 434 W/m2
16:40 -11.7 °C -13.4 °C 33751.6 hPa NW 36.2 km/h 46.7 km/h 81 % 0 mm 406 W/m2
16:45 -11.7 °C -13.4 °C 33751.6 hPa WNW 18.2 km/h 54.4 km/h 81 % 0 mm 320 W/m2
16:50 -11.6 °C -13.5 °C 33751.6 hPa WNW 18.2 km/h 59.5 km/h 80 % 0 mm 185 W/m2
16:55 -11.6 °C -13.4 °C 33751.6 hPa NW 12.9 km/h 59.5 km/h 80 % 0 mm 264 W/m2
17:00 -11.6 °C -13.6 °C 33765.2 hPa WNW 25.9 km/h 46.7 km/h 79 % 0 mm 102 W/m2
17:05 -11.8 °C -13.8 °C 33765.2 hPa NNW 31.1 km/h 46.7 km/h 78 % 0 mm 135 W/m2
17:10 -11.8 °C -13.9 °C 33765.2 hPa WNW 23.3 km/h 51.8 km/h 77 % 0 mm 91 W/m2
17:15 -11.9 °C -14.1 °C 33765.2 hPa NW 12.9 km/h 51.8 km/h 76 % 0 mm 98 W/m2
17:20 -12.1 °C -14.3 °C 33765.2 hPa WNW 28.5 km/h 51.8 km/h 76 % 0 mm 33 W/m2
17:25 -12.3 °C -14.4 °C 33775.4 hPa NNW 28.5 km/h 51.8 km/h 77 % 0 mm 40 W/m2
17:30 -12.3 °C -14.4 °C 33775.4 hPa NW 12.9 km/h 62.1 km/h 78 % 0 mm 113 W/m2
17:35 -12.3 °C -14.2 °C 33788.9 hPa West 15.6 km/h 62.1 km/h 79 % 0 mm 95 W/m2
17:40 -12.2 °C -14.1 °C 33775.4 hPa WNW 7.7 km/h 59.5 km/h 79 % 0 mm 60 W/m2
17:45 -12.1 °C -14.1 °C 33788.9 hPa WNW 20.8 km/h 59.5 km/h 79 % 0 mm 88 W/m2
17:50 -12.1 °C -14.1 °C 33788.9 hPa NW 28.5 km/h 46.7 km/h 79 % 0 mm 46 W/m2
17:55 -12.2 °C -14 °C 33788.9 hPa WNW 31.1 km/h 46.7 km/h 80 % 0 mm 37 W/m2
18:00 -12.3 °C -14.2 °C 33799.1 hPa WNW 12.9 km/h 51.8 km/h 80 % 0 mm 33 W/m2
18:05 -12.4 °C -14.4 °C 33799.1 hPa WNW 20.8 km/h 51.8 km/h 78 % 0 mm 30 W/m2
18:10 -12.4 °C -14.6 °C 33799.1 hPa NW 28.5 km/h 51.8 km/h 77 % 0 mm 28 W/m2
18:15 -12.4 °C -14.6 °C 33809.2 hPa NW 33.6 km/h 49.2 km/h 77 % 0 mm 26 W/m2
18:20 -12.5 °C -14.5 °C 33809.2 hPa NW 20.8 km/h 41.4 km/h 78 % 0 mm 25 W/m2
18:25 -12.6 °C -14.5 °C 33809.2 hPa WNW 20.8 km/h 54.4 km/h 79 % 0 mm 23 W/m2
18:30 -12.6 °C -14.4 °C 33822.8 hPa NW 20.8 km/h 54.4 km/h 80 % 0 mm 19 W/m2
18:35 -12.7 °C -14.3 °C 33822.8 hPa West 25.9 km/h 41.4 km/h 82 % 0 mm 18 W/m2
18:40 -12.7 °C -14.3 °C 33822.8 hPa WNW 31.1 km/h 54.4 km/h 82 % 0 mm 11 W/m2
18:45 -12.7 °C -14.2 °C 33822.8 hPa West 18.2 km/h 57 km/h 83 % 0 mm 7 W/m2
18:50 -12.7 °C -14.1 °C 33832.9 hPa West 41.4 km/h 57 km/h 84 % 0 mm 5 W/m2
18:55 -12.7 °C -14.2 °C 33832.9 hPa WNW 28.5 km/h 44.1 km/h 84 % 0 mm 0 W/m2
19:00 -12.7 °C -14.2 °C 33843.1 hPa NW 23.3 km/h 44.1 km/h 84 % 0 mm 0 W/m2
19:05 -12.8 °C -14.3 °C 33843.1 hPa NW 28.5 km/h 41.4 km/h 83 % 0 mm 0 W/m2
19:10 -12.8 °C -14.3 °C 33843.1 hPa WNW 23.3 km/h 44.1 km/h 83 % 0 mm 0 W/m2
19:15 -12.8 °C -14.4 °C 33843.1 hPa WNW 20.8 km/h 54.4 km/h 82 % 0 mm 0 W/m2
19:20 -12.8 °C -14.5 °C 33856.6 hPa WNW 31.1 km/h 54.4 km/h 81 % 0 mm 0 W/m2
19:25 -12.9 °C -14.7 °C 33856.6 hPa WNW 33.6 km/h 46.7 km/h 80 % 0 mm 0 W/m2
19:30 -12.9 °C -14.8 °C 33856.6 hPa NW 15.6 km/h 46.7 km/h 79 % 0 mm 0 W/m2
19:40 -13 °C -14.8 °C 33866.8 hPa WNW 23.3 km/h 46.7 km/h 80 % 0 mm 0 W/m2
19:45 -13 °C -14.7 °C 33866.8 hPa West 12.9 km/h 38.8 km/h 81 % 0 mm 0 W/m2
19:50 -13 °C -14.7 °C 33880.3 hPa West 15.6 km/h 38.8 km/h 81 % 0 mm 0 W/m2
19:55 -13 °C -14.7 °C 33880.3 hPa WNW 12.9 km/h 33.6 km/h 81 % 0 mm 0 W/m2
20:00 -13.1 °C -14.7 °C 33880.3 hPa WNW 20.8 km/h 33.6 km/h 82 % 0 mm 0 W/m2
20:05 -13.1 °C -14.7 °C 33880.3 hPa NW 18.2 km/h 33.6 km/h 82 % 0 mm 0 W/m2
20:10 -13.1 °C -14.6 °C 33890.5 hPa WNW 18.2 km/h 36.2 km/h 83 % 0 mm 0 W/m2
20:15 -13.1 °C -14.6 °C 33890.5 hPa West 15.6 km/h 36.2 km/h 83 % 0 mm 0 W/m2
20:20 -13.1 °C -14.6 °C 33890.5 hPa WNW 20.8 km/h 36.2 km/h 83 % 0 mm 0 W/m2
20:25 -13.1 °C -14.6 °C 33890.5 hPa WNW 18.2 km/h 36.2 km/h 84 % 0 mm 0 W/m2
20:30 -13.1 °C -14.5 °C 33890.5 hPa WSW 12.9 km/h 36.2 km/h 84 % 0 mm 0 W/m2
20:35 -13.1 °C -14.6 °C 33890.5 hPa West 18.2 km/h 36.2 km/h 83 % 0 mm 0 W/m2
20:40 -13.1 °C -14.6 °C 33890.5 hPa WSW 10.3 km/h 28.5 km/h 83 % 0 mm 0 W/m2
20:45 -13.1 °C -14.6 °C 33890.5 hPa WNW 10.3 km/h 28.5 km/h 83 % 0 mm 0 W/m2
20:50 -13 °C -14.6 °C 33890.5 hPa West 10.3 km/h 31.1 km/h 83 % 0 mm 0 W/m2
20:55 -12.9 °C -14.4 °C 33890.5 hPa NW 12.9 km/h 31.1 km/h 84 % 0 mm 0 W/m2
21:00 -13 °C -14.4 °C 33900.6 hPa NW 18.2 km/h 23.3 km/h 84 % 0 mm 0 W/m2
21:10 -13.2 °C -14.6 °C 33900.6 hPa NW 10.3 km/h 33.6 km/h 84 % 0 mm 0 W/m2
21:15 -13.1 °C -14.6 °C 33900.6 hPa WNW 18.2 km/h 33.6 km/h 83 % 0 mm 0 W/m2
21:25 -13.1 °C -14.6 °C 33914.2 hPa WNW 5.1 km/h 28.5 km/h 83 % 0 mm 0 W/m2
21:30 -13.1 °C -14.6 °C 33914.2 hPa West 12.9 km/h 25.9 km/h 83 % 0 mm 0 W/m2
21:40 -13.2 °C -14.6 °C 33914.2 hPa WNW 7.7 km/h 25.9 km/h 84 % 0 mm 0 W/m2
21:45 -13.2 °C -14.6 °C 33924.3 hPa WNW 7.7 km/h 31.1 km/h 84 % 0 mm 0 W/m2
21:50 -13.2 °C -14.9 °C 33924.3 hPa West 10.3 km/h 33.6 km/h 81 % 0 mm 0 W/m2
21:55 -13.2 °C -14.8 °C 33924.3 hPa WNW 12.9 km/h 33.6 km/h 82 % 0 mm 0 W/m2
22:00 -13.1 °C -14.7 °C 33924.3 hPa WNW 20.8 km/h 28.5 km/h 82 % 0 mm 0 W/m2
22:05 -13.1 °C -14.8 °C 33924.3 hPa West 10.3 km/h 33.6 km/h 81 % 0 mm 0 W/m2
22:10 -13.1 °C -14.8 °C 33937.9 hPa West 15.6 km/h 33.6 km/h 81 % 0 mm 0 W/m2
22:15 -13.1 °C -14.7 °C 33924.3 hPa West 5.1 km/h 25.9 km/h 82 % 0 mm 0 W/m2
22:20 -13.1 °C -14.6 °C 33924.3 hPa WSW 12.9 km/h 20.8 km/h 83 % 0 mm 0 W/m2
22:25 -13.1 °C -14.6 °C 33924.3 hPa West 5.1 km/h 23.3 km/h 84 % 0 mm 0 W/m2
22:30 -13.1 °C -14.4 °C 33924.3 hPa WNW 12.9 km/h 23.3 km/h 85 % 0 mm 0 W/m2
22:35 -12.9 °C -14.3 °C 33924.3 hPa West 25.9 km/h 36.2 km/h 85 % 0 mm 0 W/m2
22:40 -12.9 °C -14.3 °C 33924.3 hPa WNW 7.7 km/h 38.8 km/h 85 % 0 mm 0 W/m2
22:45 -12.9 °C -14.3 °C 33924.3 hPa West 12.9 km/h 38.8 km/h 84 % 0 mm 0 W/m2
22:50 -13 °C -14.5 °C 33924.3 hPa West 15.6 km/h 28.5 km/h 83 % 0 mm 0 W/m2
22:55 -13 °C -14.4 °C 33924.3 hPa West 10.3 km/h 31.1 km/h 84 % 0 mm 0 W/m2
23:00 -13 °C -14.6 °C 33924.3 hPa WSW 12.9 km/h 31.1 km/h 83 % 0 mm 0 W/m2
23:05 -13.1 °C -14.6 °C 33924.3 hPa WNW 7.7 km/h 31.1 km/h 83 % 0 mm 0 W/m2
23:10 -13.1 °C -14.6 °C 33924.3 hPa West 15.6 km/h 23.3 km/h 83 % 0 mm 0 W/m2
23:15 -13.2 °C -14.6 °C 33937.9 hPa West 7.7 km/h 20.8 km/h 84 % 0 mm 0 W/m2
23:20 -13.1 °C -14.5 °C 33937.9 hPa NW 5.1 km/h 18.2 km/h 84 % 0 mm 0 W/m2
23:25 -13.1 °C -14.6 °C 33937.9 hPa West 15.6 km/h 18.2 km/h 84 % 0 mm 0 W/m2
23:30 -13.1 °C -14.4 °C 33937.9 hPa WNW 7.7 km/h 15.6 km/h 85 % 0 mm 0 W/m2
23:35 -13.1 °C -14.4 °C 33937.9 hPa Calm   15.6 km/h 85 % 0 mm 0 W/m2
23:40 -13.1 °C -14.4 °C 33948 hPa WNW 23.3 km/h 28.5 km/h 85 % 0 mm 0 W/m2
23:45 -12.9 °C -14.3 °C 33948 hPa SW 12.9 km/h 33.6 km/h 84 % 0 mm 0 W/m2
23:50 -12.9 °C -14.4 °C 33948 hPa WNW 15.6 km/h 33.6 km/h 83 % 0 mm 0 W/m2
23:55 -12.9 °C -14.4 °C 33948 hPa West 10.3 km/h 31.1 km/h 83 % 0 mm 0 W/m2
Avec l'autorisation de Weather Underground - 1.75 mb